createdAt,value
2023-07-17T00:00:49.242Z,0
2023-07-17T00:01:49.296Z,0
2023-07-17T00:02:49.274Z,0
2023-07-17T00:03:49.362Z,0
2023-07-17T00:04:49.227Z,0
2023-07-17T00:05:49.235Z,0
2023-07-17T00:06:49.240Z,0
2023-07-17T00:07:49.225Z,0
2023-07-17T00:08:49.207Z,0
2023-07-17T00:09:49.225Z,0
2023-07-17T00:10:49.221Z,0
2023-07-17T00:11:49.226Z,0
2023-07-17T00:12:49.229Z,0
2023-07-17T00:13:49.217Z,0
2023-07-17T00:14:49.213Z,0
2023-07-17T00:15:49.222Z,0
2023-07-17T00:16:49.267Z,0
2023-07-17T00:17:49.262Z,0
2023-07-17T00:18:49.219Z,0
2023-07-17T00:19:49.226Z,0
2023-07-17T00:20:49.234Z,0
2023-07-17T00:21:49.207Z,0
2023-07-17T00:22:49.293Z,0
2023-07-17T00:23:49.222Z,0
2023-07-17T00:24:49.225Z,0
2023-07-17T00:25:49.217Z,0
2023-07-17T00:26:49.278Z,0
2023-07-17T00:27:49.223Z,0
2023-07-17T00:28:49.220Z,0
2023-07-17T00:29:49.252Z,0
2023-07-17T00:30:49.252Z,0
2023-07-17T00:31:49.209Z,0
2023-07-17T00:32:49.249Z,0
2023-07-17T00:33:49.235Z,0
2023-07-17T00:34:49.225Z,0
2023-07-17T00:35:49.226Z,0
2023-07-17T00:36:49.223Z,0
2023-07-17T00:37:49.201Z,0
2023-07-17T00:38:49.229Z,0
2023-07-17T00:39:49.238Z,0
2023-07-17T00:40:49.226Z,0
2023-07-17T00:41:49.233Z,0
2023-07-17T00:42:49.217Z,0
2023-07-17T00:43:49.228Z,0
2023-07-17T00:44:49.239Z,0
2023-07-17T00:45:49.223Z,0
2023-07-17T00:46:49.313Z,0
2023-07-17T00:47:49.259Z,0
2023-07-17T00:48:49.221Z,0
2023-07-17T00:49:49.226Z,0
2023-07-17T00:50:49.232Z,0
2023-07-17T00:51:49.228Z,0
2023-07-17T00:52:49.239Z,0
2023-07-17T00:53:49.220Z,0
2023-07-17T00:54:49.200Z,0
2023-07-17T00:55:49.206Z,0
2023-07-17T00:56:49.214Z,0
2023-07-17T00:57:49.230Z,0
2023-07-17T00:58:49.218Z,0
2023-07-17T00:59:49.211Z,0
2023-07-17T01:00:49.309Z,0
2023-07-17T01:01:49.248Z,0
2023-07-17T01:02:49.339Z,0
2023-07-17T01:03:49.206Z,0
2023-07-17T01:04:49.240Z,0
2023-07-17T01:05:49.226Z,0
2023-07-17T01:06:49.222Z,0
2023-07-17T01:07:49.216Z,0
2023-07-17T01:08:49.212Z,0
2023-07-17T01:09:49.284Z,0
2023-07-17T01:10:49.217Z,0
2023-07-17T01:11:49.218Z,0
2023-07-17T01:12:49.221Z,0
2023-07-17T01:13:49.211Z,0
2023-07-17T01:14:49.217Z,0
2023-07-17T01:15:49.220Z,0
2023-07-17T01:16:49.400Z,0
2023-07-17T01:17:49.237Z,0
2023-07-17T01:18:49.206Z,0
2023-07-17T01:19:49.219Z,0
2023-07-17T01:20:49.228Z,0
2023-07-17T01:21:49.226Z,0
2023-07-17T01:22:49.271Z,0
2023-07-17T01:23:49.215Z,0
2023-07-17T01:24:49.212Z,0
2023-07-17T01:25:49.272Z,0
2023-07-17T01:26:49.240Z,0
2023-07-17T01:27:49.221Z,0
2023-07-17T01:28:49.208Z,0
2023-07-17T01:29:49.229Z,0
2023-07-17T01:30:49.275Z,0
2023-07-17T01:31:49.209Z,0
2023-07-17T01:32:49.274Z,0
2023-07-17T01:33:49.217Z,0
2023-07-17T01:34:49.248Z,0
2023-07-17T01:35:49.227Z,0
2023-07-17T01:36:49.228Z,0
2023-07-17T01:37:49.214Z,0
2023-07-17T01:38:49.220Z,0
2023-07-17T01:39:49.228Z,0
2023-07-17T01:40:49.209Z,0
2023-07-17T01:41:49.224Z,0
2023-07-17T01:42:49.212Z,0
2023-07-17T01:43:49.224Z,0
2023-07-17T01:44:49.227Z,0
2023-07-17T01:45:49.238Z,0
2023-07-17T01:46:49.390Z,0
2023-07-17T01:47:49.257Z,0
2023-07-17T01:48:49.211Z,0
2023-07-17T01:49:49.225Z,0
2023-07-17T01:50:49.245Z,0
2023-07-17T01:51:49.219Z,0
2023-07-17T01:52:49.220Z,0
2023-07-17T01:53:49.231Z,0
2023-07-17T01:54:49.217Z,0
2023-07-17T01:55:49.207Z,0
2023-07-17T01:56:49.218Z,0
2023-07-17T01:57:49.232Z,0
2023-07-17T01:58:49.223Z,0
2023-07-17T01:59:49.221Z,0
2023-07-17T02:00:49.226Z,0
2023-07-17T02:01:49.240Z,0
2023-07-17T02:02:49.280Z,0
2023-07-17T02:03:49.211Z,0
2023-07-17T02:04:49.300Z,0
2023-07-17T02:05:49.230Z,0
2023-07-17T02:06:49.217Z,0
2023-07-17T02:07:49.236Z,0
2023-07-17T02:08:49.217Z,0
2023-07-17T02:09:49.213Z,0
2023-07-17T02:10:49.213Z,0
2023-07-17T02:11:49.220Z,0
2023-07-17T02:12:49.223Z,0
2023-07-17T02:13:49.217Z,0
2023-07-17T02:14:49.212Z,0
2023-07-17T02:15:49.223Z,0
2023-07-17T02:16:49.262Z,0
2023-07-17T02:17:49.257Z,0
2023-07-17T02:18:49.215Z,0
2023-07-17T02:19:49.221Z,0
2023-07-17T02:20:49.228Z,0
2023-07-17T02:21:49.225Z,0
2023-07-17T02:22:49.233Z,0
2023-07-17T02:23:49.235Z,0
2023-07-17T02:24:49.210Z,0
2023-07-17T02:25:49.219Z,0
2023-07-17T02:26:49.221Z,0
2023-07-17T02:27:49.210Z,0
2023-07-17T02:28:49.229Z,0
2023-07-17T02:29:49.225Z,0
2023-07-17T02:30:49.239Z,0
2023-07-17T02:31:49.254Z,0
2023-07-17T02:32:49.253Z,0
2023-07-17T02:33:49.216Z,0
2023-07-17T02:34:49.220Z,0
2023-07-17T02:35:49.228Z,0
2023-07-17T02:36:49.215Z,0
2023-07-17T02:37:49.216Z,0
2023-07-17T02:38:49.216Z,0
2023-07-17T02:39:49.232Z,0
2023-07-17T02:40:49.210Z,0
2023-07-17T02:41:49.221Z,0
2023-07-17T02:42:49.211Z,0
2023-07-17T02:43:49.219Z,0
2023-07-17T02:44:49.242Z,0
2023-07-17T02:45:49.303Z,0
2023-07-17T02:46:49.217Z,0
2023-07-17T02:47:49.266Z,0
2023-07-17T02:48:49.214Z,0
2023-07-17T02:49:49.230Z,0
2023-07-17T02:50:49.219Z,0
2023-07-17T02:51:49.205Z,0
2023-07-17T02:52:49.221Z,0
2023-07-17T02:53:49.225Z,0
2023-07-17T02:54:49.218Z,0.01
2023-07-17T02:55:49.213Z,0.01
2023-07-17T02:56:49.221Z,0.01
2023-07-17T02:57:49.220Z,0.01
2023-07-17T02:58:49.225Z,0.01
2023-07-17T02:59:49.219Z,0.01
2023-07-17T03:00:49.211Z,0.01
2023-07-17T03:01:49.357Z,0.02
2023-07-17T03:02:49.278Z,0.02
2023-07-17T03:03:49.215Z,0.02
2023-07-17T03:04:49.222Z,0.02
2023-07-17T03:05:49.420Z,0.02
2023-07-17T03:06:49.229Z,0.03
2023-07-17T03:07:49.221Z,0.03
2023-07-17T03:08:49.229Z,0.03
2023-07-17T03:09:50.933Z,0.03
2023-07-17T03:10:49.208Z,0.04
2023-07-17T03:11:49.202Z,0.04
2023-07-17T03:12:49.220Z,0.04
2023-07-17T03:13:49.208Z,0.04
2023-07-17T03:14:49.207Z,0.05
2023-07-17T03:15:49.230Z,0.05
2023-07-17T03:16:49.224Z,0.06
2023-07-17T03:17:49.223Z,0.06
2023-07-17T03:18:49.208Z,0.06
2023-07-17T03:19:49.218Z,0.07
2023-07-17T03:20:49.225Z,0.07
2023-07-17T03:21:49.221Z,0.07
2023-07-17T03:22:49.228Z,0.08
2023-07-17T03:23:49.216Z,0.08
2023-07-17T03:24:49.209Z,0.09
2023-07-17T03:25:49.215Z,0.09
2023-07-17T03:26:49.227Z,0.1
2023-07-17T03:27:49.225Z,0.1
2023-07-17T03:28:49.239Z,0.11
2023-07-17T03:29:49.213Z,0.11
2023-07-17T03:30:49.240Z,0.12
2023-07-17T03:31:49.269Z,0.12
2023-07-17T03:32:49.405Z,0.13
2023-07-17T03:33:49.258Z,0.13
2023-07-17T03:34:49.233Z,0.14
2023-07-17T03:35:49.228Z,0.14
2023-07-17T03:36:49.222Z,0.14
2023-07-17T03:37:49.217Z,0.15
2023-07-17T03:38:49.224Z,0.15
2023-07-17T03:39:49.208Z,0.16
2023-07-17T03:40:49.210Z,0.16
2023-07-17T03:41:49.208Z,0.17
2023-07-17T03:42:49.216Z,0.18
2023-07-17T03:43:49.215Z,0.18
2023-07-17T03:44:49.225Z,0.19
2023-07-17T03:45:49.224Z,0.19
2023-07-17T03:46:49.240Z,0.19
2023-07-17T03:47:49.228Z,0.2
2023-07-17T03:48:49.225Z,0.21
2023-07-17T03:49:49.244Z,0.22
2023-07-17T03:50:49.238Z,0.22
2023-07-17T03:51:49.207Z,0.23
2023-07-17T03:52:49.217Z,0.23
2023-07-17T03:53:49.226Z,0.25
2023-07-17T03:54:49.246Z,0.25
2023-07-17T03:55:49.230Z,0.26
2023-07-17T03:56:49.210Z,0.26
2023-07-17T03:57:49.218Z,0.27
2023-07-17T03:58:49.221Z,0.27
2023-07-17T03:59:49.249Z,0.28
2023-07-17T04:00:49.285Z,0.29
2023-07-17T04:01:49.231Z,0.29
2023-07-17T04:02:49.238Z,0.3
2023-07-17T04:03:51.997Z,0.3
2023-07-17T04:04:49.221Z,0.31
2023-07-17T04:05:49.226Z,0.32
2023-07-17T04:06:49.249Z,0.32
2023-07-17T04:07:49.211Z,0.32
2023-07-17T04:08:49.225Z,0.33
2023-07-17T04:09:49.214Z,0.34
2023-07-17T04:10:49.219Z,0.35
2023-07-17T04:11:49.206Z,0.36
2023-07-17T04:12:49.217Z,0.36
2023-07-17T04:13:49.213Z,0.37
2023-07-17T04:14:49.209Z,0.38
2023-07-17T04:15:49.212Z,0.39
2023-07-17T04:16:49.273Z,0.4
2023-07-17T04:17:49.259Z,0.41
2023-07-17T04:18:49.221Z,0.43
2023-07-17T04:19:49.224Z,0.44
2023-07-17T04:20:49.229Z,0.46
2023-07-17T04:21:49.223Z,0.48
2023-07-17T04:22:49.242Z,0.47
2023-07-17T04:23:49.284Z,0.45
2023-07-17T04:24:49.225Z,0.44
2023-07-17T04:25:49.208Z,0.44
2023-07-17T04:26:49.244Z,0.44
2023-07-17T04:27:49.229Z,0.45
2023-07-17T04:28:49.215Z,0.45
2023-07-17T04:29:49.212Z,0.45
2023-07-17T04:30:49.250Z,0.42
2023-07-17T04:31:49.226Z,0.43
2023-07-17T04:32:49.290Z,0.44
2023-07-17T04:33:49.227Z,0.48
2023-07-17T04:34:49.220Z,0.47
2023-07-17T04:35:49.235Z,0.47
2023-07-17T04:36:49.213Z,0.52
2023-07-17T04:37:49.220Z,0.56
2023-07-17T04:38:49.210Z,0.6
2023-07-17T04:39:49.221Z,0.64
2023-07-17T04:40:54.640Z,0.67
2023-07-17T04:41:53.584Z,0.67
2023-07-17T04:42:53.553Z,0.66
2023-07-17T04:43:53.552Z,0.64
2023-07-17T04:44:53.538Z,0.61
2023-07-17T04:45:53.543Z,0.59
2023-07-17T04:46:53.545Z,0.58
2023-07-17T04:47:53.589Z,0.55
2023-07-17T04:48:53.556Z,0.51
2023-07-17T04:49:53.543Z,0.49
2023-07-17T04:50:53.536Z,0.47
2023-07-17T04:51:53.538Z,0.44
2023-07-17T04:52:53.529Z,0.4
2023-07-17T04:53:53.522Z,0.39
2023-07-17T04:54:53.550Z,0.39
2023-07-17T04:55:53.550Z,0.39
2023-07-17T04:56:53.529Z,0.39
2023-07-17T04:57:53.550Z,0.4
2023-07-17T04:58:53.543Z,0.41
2023-07-17T04:59:53.552Z,0.42
2023-07-17T05:00:53.544Z,0.42
2023-07-17T05:01:53.530Z,0.43
2023-07-17T05:02:53.653Z,0.44
2023-07-17T05:03:53.568Z,0.45
2023-07-17T05:04:53.542Z,0.46
2023-07-17T05:05:53.554Z,0.48
2023-07-17T05:06:53.533Z,0.5
2023-07-17T05:07:53.525Z,0.5
2023-07-17T05:08:53.545Z,0.5
2023-07-17T05:09:53.536Z,0.49
2023-07-17T05:10:53.531Z,0.48
2023-07-17T05:11:53.528Z,0.47
2023-07-17T05:12:53.533Z,0.48
2023-07-17T05:13:53.554Z,0.49
2023-07-17T05:14:53.535Z,0.5
2023-07-17T05:15:53.533Z,0.51
2023-07-17T05:16:53.593Z,0.52
2023-07-17T05:17:53.540Z,0.54
2023-07-17T05:18:53.546Z,0.58
2023-07-17T05:19:53.567Z,0.61
2023-07-17T05:20:53.556Z,0.65
2023-07-17T05:21:53.538Z,0.67
2023-07-17T05:22:53.561Z,0.68
2023-07-17T05:23:53.543Z,0.68
2023-07-17T05:24:53.553Z,0.69
2023-07-17T05:25:53.562Z,0.71
2023-07-17T05:26:53.539Z,0.72
2023-07-17T05:27:53.542Z,0.7
2023-07-17T05:28:53.554Z,0.66
2023-07-17T05:29:53.546Z,0.63
2023-07-17T05:30:53.585Z,0.56
2023-07-17T05:31:53.531Z,0.5
2023-07-17T05:32:53.627Z,0.47
2023-07-17T05:33:53.537Z,0.44
2023-07-17T05:34:53.542Z,0.43
2023-07-17T05:35:53.546Z,0.45
2023-07-17T05:36:53.543Z,0.47
2023-07-17T05:37:53.552Z,0.46
2023-07-17T05:38:53.532Z,0.43
2023-07-17T05:39:53.531Z,0.39
2023-07-17T05:40:53.525Z,0.39
2023-07-17T05:41:53.541Z,0.43
2023-07-17T05:42:53.560Z,0.49
2023-07-17T05:43:53.535Z,0.54
2023-07-17T05:44:53.522Z,0.58
2023-07-17T05:45:53.545Z,0.6
2023-07-17T05:46:53.667Z,0.61
2023-07-17T05:47:53.532Z,0.6
2023-07-17T05:48:53.521Z,0.62
2023-07-17T05:49:53.539Z,0.65
2023-07-17T05:50:53.546Z,0.65
2023-07-17T05:51:53.531Z,0.7
2023-07-17T05:52:53.520Z,0.75
2023-07-17T05:53:53.519Z,0.78
2023-07-17T05:54:53.533Z,0.72
2023-07-17T05:55:53.576Z,0.7
2023-07-17T05:56:53.539Z,0.73
2023-07-17T05:57:53.529Z,0.78
2023-07-17T05:58:53.556Z,0.9
2023-07-17T05:59:53.536Z,1.03
2023-07-17T06:00:53.541Z,1.02
2023-07-17T06:01:53.533Z,0.96
2023-07-17T06:02:53.609Z,0.91
2023-07-17T06:03:53.551Z,0.86
2023-07-17T06:04:53.701Z,0.84
2023-07-17T06:05:53.542Z,0.85
2023-07-17T06:06:53.526Z,0.86
2023-07-17T06:07:53.532Z,0.86
2023-07-17T06:08:53.548Z,0.79
2023-07-17T06:09:53.533Z,0.77
2023-07-17T06:10:53.558Z,0.75
2023-07-17T06:11:53.520Z,0.74
2023-07-17T06:12:53.551Z,0.78
2023-07-17T06:13:53.544Z,0.82
2023-07-17T06:14:53.534Z,0.83
2023-07-17T06:15:53.535Z,0.86
2023-07-17T06:16:53.563Z,0.92
2023-07-17T06:17:53.579Z,1.02
2023-07-17T06:18:53.541Z,1.19
2023-07-17T06:19:53.529Z,1.24
2023-07-17T06:20:53.553Z,1.26
2023-07-17T06:21:53.550Z,1.27
2023-07-17T06:22:53.877Z,1.32
2023-07-17T06:23:53.544Z,1.37
2023-07-17T06:24:53.528Z,1.42
2023-07-17T06:25:53.533Z,1.44
2023-07-17T06:26:55.307Z,1.47
2023-07-17T06:27:53.552Z,1.45
2023-07-17T06:28:53.536Z,1.31
2023-07-17T06:29:53.530Z,1.25
2023-07-17T06:30:53.526Z,1.19
2023-07-17T06:31:53.658Z,1.12
2023-07-17T06:32:53.583Z,1.12
2023-07-17T06:33:53.523Z,1.14
2023-07-17T06:34:53.526Z,1.15
2023-07-17T06:35:53.556Z,1.15
2023-07-17T06:36:53.544Z,1.14
2023-07-17T06:37:53.535Z,1.17
2023-07-17T06:38:53.533Z,1.2
2023-07-17T06:39:53.535Z,1.21
2023-07-17T06:40:53.548Z,1.22
2023-07-17T06:41:53.553Z,1.21
2023-07-17T06:42:53.553Z,1.18
2023-07-17T06:43:53.554Z,1.13
2023-07-17T06:44:53.786Z,1.07
2023-07-17T06:45:53.572Z,1.01
2023-07-17T06:46:53.596Z,1
2023-07-17T06:47:53.611Z,1.03
2023-07-17T06:48:53.553Z,1.07
2023-07-17T06:49:53.538Z,1.07
2023-07-17T06:50:53.571Z,1.03
2023-07-17T06:51:53.540Z,0.95
2023-07-17T06:52:53.534Z,0.86
2023-07-17T06:53:53.526Z,0.81
2023-07-17T06:55:53.540Z,0.79
2023-07-17T06:56:53.536Z,0.8
2023-07-17T06:57:53.581Z,0.84
2023-07-17T06:58:53.528Z,0.87
2023-07-17T06:59:53.544Z,0.88
2023-07-17T07:00:53.539Z,0.85
2023-07-17T07:01:54.910Z,0.83
2023-07-17T07:02:53.592Z,0.81
2023-07-17T07:03:53.601Z,0.82
2023-07-17T07:04:53.577Z,0.81
2023-07-17T07:05:53.552Z,0.79
2023-07-17T07:06:53.543Z,0.78
2023-07-17T07:07:53.550Z,0.78
2023-07-17T07:08:53.529Z,0.81
2023-07-17T07:09:53.539Z,0.82
2023-07-17T07:10:53.547Z,0.82
2023-07-17T07:11:53.524Z,0.83
2023-07-17T07:12:53.531Z,0.88
2023-07-17T07:13:53.525Z,0.93
2023-07-17T07:14:53.540Z,0.99
2023-07-17T07:15:53.553Z,1.03
2023-07-17T07:16:53.638Z,1.03
2023-07-17T07:17:53.584Z,1
2023-07-17T07:18:53.530Z,1
2023-07-17T07:19:53.550Z,1.05
2023-07-17T07:20:53.537Z,1.13
2023-07-17T07:21:53.540Z,1.22
2023-07-17T07:22:53.564Z,1.37
2023-07-17T07:23:53.536Z,1.51
2023-07-17T07:24:53.534Z,1.69
2023-07-17T07:25:53.529Z,1.82
2023-07-17T07:26:53.536Z,1.89
2023-07-17T07:27:53.543Z,1.99
2023-07-17T07:28:53.535Z,2.15
2023-07-17T07:29:53.525Z,2.4
2023-07-17T07:30:53.545Z,1.98
2023-07-17T07:31:53.567Z,1.74
2023-07-17T07:32:53.550Z,1.88
2023-07-17T07:33:53.535Z,1.88
2023-07-17T07:34:53.535Z,1.77
2023-07-17T07:35:53.551Z,1.78
2023-07-17T07:36:53.561Z,2.09
2023-07-17T07:37:53.530Z,2.19
2023-07-17T07:38:53.538Z,2.26
2023-07-17T07:39:53.528Z,2.62
2023-07-17T07:40:53.531Z,2.39
2023-07-17T07:41:53.532Z,2.59
2023-07-17T07:42:53.526Z,2.52
2023-07-17T07:43:53.525Z,2.73
2023-07-17T07:44:53.518Z,2.58
2023-07-17T07:45:53.592Z,2.58
2023-07-17T07:46:53.537Z,2.62
2023-07-17T07:47:53.723Z,2.63
2023-07-17T07:48:53.526Z,2.51
2023-07-17T07:49:53.526Z,2.07
2023-07-17T07:50:53.561Z,1.88
2023-07-17T07:51:53.525Z,1.74
2023-07-17T07:52:55.245Z,1.69
2023-07-17T07:53:53.537Z,1.75
2023-07-17T07:54:57.344Z,1.82
2023-07-17T07:55:53.523Z,2.02
2023-07-17T07:56:53.539Z,2.2
2023-07-17T07:57:53.529Z,2.59
2023-07-17T07:58:53.545Z,2.71
2023-07-17T07:59:53.523Z,4.81
2023-07-17T08:00:53.531Z,3.91
2023-07-17T08:01:53.599Z,2.94
2023-07-17T08:02:53.583Z,2.86
2023-07-17T08:03:53.559Z,3.05
2023-07-17T08:04:53.534Z,2.82
2023-07-17T08:05:53.542Z,2.96
2023-07-17T08:06:53.531Z,3.06
2023-07-17T08:07:53.530Z,3.06
2023-07-17T08:08:53.544Z,2.51
2023-07-17T08:09:53.543Z,2.28
2023-07-17T08:10:53.539Z,2.7
2023-07-17T08:11:53.523Z,4.28
2023-07-17T08:12:53.526Z,8.28
2023-07-17T08:13:54.707Z,4.98
2023-07-17T08:14:53.541Z,5.73
2023-07-17T08:15:53.559Z,7.53
2023-07-17T08:16:53.539Z,3.85
2023-07-17T08:17:53.608Z,4.98
2023-07-17T08:18:53.512Z,3.61
2023-07-17T08:19:53.538Z,7.83
2023-07-17T08:20:55.331Z,3.45
2023-07-17T08:21:53.550Z,3.93
2023-07-17T08:22:53.582Z,4.09
2023-07-17T08:23:53.514Z,5.1
2023-07-17T08:24:53.535Z,4.46
2023-07-17T08:25:53.616Z,6.57
2023-07-17T08:26:53.632Z,2.15
2023-07-17T08:27:53.533Z,1.72
2023-07-17T08:28:53.534Z,1.67
2023-07-17T08:29:53.525Z,2.33
2023-07-17T08:30:53.577Z,3.37
2023-07-17T08:31:53.577Z,4.62
2023-07-17T08:32:53.568Z,3.19
2023-07-17T08:33:53.528Z,3.07
2023-07-17T08:34:53.545Z,6.16
2023-07-17T08:35:53.531Z,5.86
2023-07-17T08:36:53.524Z,3.1
2023-07-17T08:37:53.514Z,3.73
2023-07-17T08:38:53.531Z,4.13
2023-07-17T08:39:53.538Z,5.27
2023-07-17T08:40:53.519Z,5.19
2023-07-17T08:41:53.536Z,4.08
2023-07-17T08:42:53.526Z,3.25
2023-07-17T08:43:53.527Z,10.94
2023-07-17T08:44:53.517Z,9.6
2023-07-17T08:45:53.578Z,10.41
2023-07-17T08:46:53.533Z,5.43
2023-07-17T08:47:53.562Z,4.78
2023-07-17T08:48:53.528Z,4.07
2023-07-17T08:49:53.536Z,5.67
2023-07-17T08:50:53.544Z,3.2
2023-07-17T08:51:53.526Z,2.51
2023-07-17T08:52:53.515Z,3.14
2023-07-17T08:53:54.707Z,10.55
2023-07-17T08:54:53.524Z,3.41
2023-07-17T08:55:53.515Z,4.11
2023-07-17T08:56:53.547Z,8.02
2023-07-17T08:57:53.527Z,7.16
2023-07-17T08:58:53.522Z,6.31
2023-07-17T08:59:53.516Z,7.55
2023-07-17T09:00:53.550Z,9.73
2023-07-17T09:01:53.652Z,4.51
2023-07-17T09:02:53.586Z,3.59
2023-07-17T09:03:53.565Z,4.45
2023-07-17T09:04:53.522Z,11.72
2023-07-17T09:05:53.538Z,13.94
2023-07-17T09:06:53.521Z,4.97
2023-07-17T09:07:53.536Z,4.97
2023-07-17T09:08:53.527Z,10.6
2023-07-17T09:09:53.510Z,3.68
2023-07-17T09:10:53.517Z,2.9
2023-07-17T09:11:53.524Z,2.42
2023-07-17T09:12:53.527Z,2.67
2023-07-17T09:13:53.527Z,2.37
2023-07-17T09:14:53.836Z,2.77
2023-07-17T09:15:53.535Z,10.69
2023-07-17T09:16:53.534Z,10.37
2023-07-17T09:17:53.608Z,11.29
2023-07-17T09:18:53.566Z,13.02
2023-07-17T09:19:53.544Z,12.49
2023-07-17T09:20:53.545Z,11.71
2023-07-17T09:21:53.529Z,10.1
2023-07-17T09:22:53.549Z,13.44
2023-07-17T09:23:53.528Z,12.66
2023-07-17T09:24:53.531Z,13.83
2023-07-17T09:25:53.539Z,11.54
2023-07-17T09:26:53.513Z,10.94
2023-07-17T09:27:53.523Z,4.94
2023-07-17T09:28:53.513Z,4.88
2023-07-17T09:29:53.536Z,11.6
2023-07-17T09:30:53.558Z,11.06
2023-07-17T09:31:53.525Z,10.54
2023-07-17T09:32:53.548Z,7.52
2023-07-17T09:33:53.518Z,9.7
2023-07-17T09:34:53.539Z,9.72
2023-07-17T09:35:53.540Z,11.06
2023-07-17T09:36:53.524Z,6.38
2023-07-17T09:37:53.522Z,3.59
2023-07-17T09:38:53.539Z,7.51
2023-07-17T09:39:53.565Z,12.33
2023-07-17T09:40:53.528Z,4.89
2023-07-17T09:41:53.524Z,3.65
2023-07-17T09:42:53.564Z,4.02
2023-07-17T09:43:53.545Z,8.51
2023-07-17T09:44:53.530Z,8.25
2023-07-17T09:45:54.940Z,10.33
2023-07-17T09:46:53.617Z,9.23
2023-07-17T09:47:53.820Z,7.33
2023-07-17T09:48:53.529Z,3.58
2023-07-17T09:49:53.549Z,3.49
2023-07-17T09:50:53.573Z,4.42
2023-07-17T09:51:53.551Z,11.93
2023-07-17T09:52:53.543Z,10.81
2023-07-17T09:53:53.560Z,12.02
2023-07-17T09:54:53.538Z,6
2023-07-17T09:55:53.528Z,12.28
2023-07-17T09:56:53.530Z,6.96
2023-07-17T09:57:53.547Z,2.98
2023-07-17T09:58:53.534Z,3.04
2023-07-17T09:59:53.518Z,2.82
2023-07-17T10:00:53.533Z,2.83
2023-07-17T10:01:54.240Z,3.22
2023-07-17T10:02:53.565Z,2.64
2023-07-17T10:03:53.630Z,4.73
2023-07-17T10:04:53.536Z,2.54
2023-07-17T10:05:53.536Z,2.46
2023-07-17T10:06:53.531Z,2.49
2023-07-17T10:07:53.636Z,2.49
2023-07-17T10:08:53.521Z,2.27
2023-07-17T10:09:53.530Z,2.34
2023-07-17T10:10:53.522Z,2.6
2023-07-17T10:11:53.529Z,3.4
2023-07-17T10:12:53.527Z,5.42
2023-07-17T10:13:53.530Z,5.67
2023-07-17T10:14:53.531Z,4.01
2023-07-17T10:15:53.541Z,11.19
2023-07-17T10:16:53.558Z,4.53
2023-07-17T10:17:53.589Z,3.7
2023-07-17T10:18:53.534Z,3.55
2023-07-17T10:19:53.525Z,13.34
2023-07-17T10:20:53.541Z,13.5
2023-07-17T10:21:54.426Z,13
2023-07-17T10:22:53.655Z,4.13
2023-07-17T10:23:53.530Z,2.76
2023-07-17T10:24:53.556Z,12.34
2023-07-17T10:25:53.552Z,11.65
2023-07-17T10:26:53.520Z,10.69
2023-07-17T10:27:53.545Z,10.73
2023-07-17T10:28:53.533Z,11.56
2023-07-17T10:29:53.530Z,11.68
2023-07-17T10:30:53.634Z,11.53
2023-07-17T10:31:53.512Z,11.68
2023-07-17T10:32:53.568Z,11.49
2023-07-17T10:33:53.543Z,10.94
2023-07-17T10:34:53.565Z,3.27
2023-07-17T10:35:53.540Z,12.73
2023-07-17T10:36:53.525Z,12.72
2023-07-17T10:37:53.518Z,11.93
2023-07-17T10:38:53.525Z,12.16
2023-07-17T10:39:53.547Z,12.74
2023-07-17T10:40:53.522Z,13.3
2023-07-17T10:41:53.528Z,13.33
2023-07-17T10:42:53.526Z,12.64
2023-07-17T10:44:05.663Z,11.42
2023-07-17T10:44:53.541Z,10.15
2023-07-17T10:45:53.548Z,9.41
2023-07-17T10:46:53.648Z,10.21
2023-07-17T10:47:53.605Z,12.13
2023-07-17T10:48:53.535Z,13.15
2023-07-17T10:49:53.529Z,12.08
2023-07-17T10:50:53.609Z,11.72
2023-07-17T10:51:53.527Z,12.29
2023-07-17T10:52:53.533Z,12.28
2023-07-17T10:53:53.529Z,11.3
2023-07-17T10:54:53.530Z,11.28
2023-07-17T10:55:53.527Z,11.15
2023-07-17T10:56:53.523Z,10.99
2023-07-17T10:57:53.530Z,11.14
2023-07-17T10:58:53.526Z,11.09
2023-07-17T10:59:53.525Z,11.12
2023-07-17T11:00:53.536Z,11.96
2023-07-17T11:01:53.564Z,13.18
2023-07-17T11:02:53.535Z,12.71
2023-07-17T11:03:53.587Z,11.08
2023-07-17T11:04:53.524Z,10.46
2023-07-17T11:05:53.533Z,10.24
2023-07-17T11:06:53.522Z,10.16
2023-07-17T11:07:53.531Z,10.16
2023-07-17T11:08:53.538Z,11.99
2023-07-17T11:09:53.529Z,2.37
2023-07-17T11:10:53.524Z,5.98
2023-07-17T11:11:53.545Z,11.62
2023-07-17T11:12:53.527Z,11.32
2023-07-17T11:13:53.526Z,10.59
2023-07-17T11:14:53.514Z,11.66
2023-07-17T11:15:53.533Z,13.26
2023-07-17T11:16:53.537Z,12.25
2023-07-17T11:17:53.615Z,9.84
2023-07-17T11:18:53.538Z,8.07
2023-07-17T11:19:53.527Z,8.64
2023-07-17T11:20:53.541Z,10.31
2023-07-17T11:21:53.529Z,11.52
2023-07-17T11:22:53.560Z,12.11
2023-07-17T11:23:53.578Z,11.69
2023-07-17T11:24:53.523Z,12.16
2023-07-17T11:25:53.535Z,10.03
2023-07-17T11:26:53.529Z,8.84
2023-07-17T11:27:53.530Z,10.77
2023-07-17T11:28:53.524Z,13.04
2023-07-17T11:29:53.534Z,12.9
2023-07-17T11:30:53.533Z,11.94
2023-07-17T11:31:53.538Z,10.95
2023-07-17T11:32:53.587Z,11.17
2023-07-17T11:33:53.527Z,12.03
2023-07-17T11:34:53.530Z,11.7
2023-07-17T11:35:53.602Z,11.22
2023-07-17T11:36:53.518Z,10.93
2023-07-17T11:37:53.550Z,11.85
2023-07-17T11:38:53.526Z,12.14
2023-07-17T11:39:53.566Z,11.84
2023-07-17T11:40:53.538Z,11.48
2023-07-17T11:41:53.549Z,12.32
2023-07-17T11:42:53.509Z,13.45
2023-07-17T11:43:53.523Z,12.27
2023-07-17T11:44:53.528Z,10.74
2023-07-17T11:45:53.563Z,9.93
2023-07-17T11:46:53.521Z,10.48
2023-07-17T11:47:53.568Z,11.66
2023-07-17T11:48:53.516Z,4.94
2023-07-17T11:49:53.548Z,11.81
2023-07-17T11:50:53.554Z,8.98
2023-07-17T11:51:53.524Z,10.76
2023-07-17T11:52:53.540Z,7.58
2023-07-17T11:53:53.531Z,11.48
2023-07-17T11:54:53.544Z,11.67
2023-07-17T11:55:53.523Z,5.92
2023-07-17T11:56:53.544Z,2.4
2023-07-17T11:58:03.200Z,2.25
2023-07-17T11:58:53.542Z,2.35
2023-07-17T11:59:53.529Z,2.78
2023-07-17T12:00:53.561Z,11.89
2023-07-17T12:01:53.608Z,12.04
2023-07-17T12:02:53.568Z,8.22
2023-07-17T12:03:54.619Z,12.66
2023-07-17T12:04:53.552Z,13.13
2023-07-17T12:05:53.547Z,12.35
2023-07-17T12:06:53.539Z,11.03
2023-07-17T12:07:53.535Z,11.03
2023-07-17T12:08:53.542Z,2.66
2023-07-17T12:09:53.523Z,2.99
2023-07-17T12:10:53.528Z,4.52
2023-07-17T12:11:53.527Z,2.59
2023-07-17T12:12:53.526Z,2.36
2023-07-17T12:13:53.523Z,2.71
2023-07-17T12:14:53.519Z,11.59
2023-07-17T12:15:53.538Z,11.21
2023-07-17T12:16:53.612Z,3.89
2023-07-17T12:17:53.533Z,2.49
2023-07-17T12:18:53.525Z,2.69
2023-07-17T12:19:53.534Z,5.14
2023-07-17T12:20:53.529Z,2.81
2023-07-17T12:21:53.537Z,10.92
2023-07-17T12:22:53.566Z,11.18
2023-07-17T12:23:53.527Z,10.89
2023-07-17T12:24:53.531Z,5.65
2023-07-17T12:25:53.562Z,11.21
2023-07-17T12:26:53.529Z,11.47
2023-07-17T12:27:54.332Z,10.68
2023-07-17T12:28:53.529Z,8.65
2023-07-17T12:29:53.552Z,4.01
2023-07-17T12:30:53.548Z,8.68
2023-07-17T12:31:53.560Z,10.93
2023-07-17T12:32:53.555Z,12.19
2023-07-17T12:33:53.531Z,11.94
2023-07-17T12:34:53.539Z,3.07
2023-07-17T12:35:54.019Z,2.67
2023-07-17T12:36:53.531Z,2.45
2023-07-17T12:37:53.600Z,2.9
2023-07-17T12:38:53.551Z,3.92
2023-07-17T12:39:55.409Z,12
2023-07-17T12:40:53.536Z,3.25
2023-07-17T12:41:53.531Z,10.94
2023-07-17T12:42:53.554Z,11.08
2023-07-17T12:43:53.532Z,9.62
2023-07-17T12:44:53.538Z,2.36
2023-07-17T12:45:53.572Z,2.3
2023-07-17T12:46:53.522Z,11.77
2023-07-17T12:47:53.585Z,11.82
2023-07-17T12:48:53.530Z,9.72
2023-07-17T12:49:53.536Z,9.26
2023-07-17T12:50:56.034Z,10.19
2023-07-17T12:51:53.550Z,7.48
2023-07-17T12:52:53.521Z,10.58
2023-07-17T12:53:53.523Z,9.92
2023-07-17T12:54:53.511Z,8.85
2023-07-17T12:56:06.103Z,9.57
2023-07-17T12:56:53.530Z,10.12
2023-07-17T12:57:53.514Z,9.48
2023-07-17T12:58:53.514Z,8.59
2023-07-17T12:59:53.530Z,9.8
2023-07-17T13:00:53.572Z,10.34
2023-07-17T13:01:53.578Z,3.8
2023-07-17T13:02:53.619Z,3.35
2023-07-17T13:03:53.661Z,2.52
2023-07-17T13:04:53.564Z,9.16
2023-07-17T13:05:53.547Z,9.42
2023-07-17T13:06:53.533Z,10.1
2023-07-17T13:07:53.538Z,10.1
2023-07-17T13:08:53.565Z,9.45
2023-07-17T13:09:53.538Z,9.95
2023-07-17T13:10:53.538Z,10.53
2023-07-17T13:11:53.516Z,10.22
2023-07-17T13:12:53.525Z,9.76
2023-07-17T13:13:53.538Z,9.56
2023-07-17T13:14:53.520Z,2.55
2023-07-17T13:15:53.585Z,1.98
2023-07-17T13:16:54.145Z,1.88
2023-07-17T13:17:53.544Z,1.88
2023-07-17T13:18:53.515Z,2.06
2023-07-17T13:19:53.526Z,2.38
2023-07-17T13:20:53.548Z,9.19
2023-07-17T13:21:53.542Z,9.3
2023-07-17T13:22:53.540Z,9.02
2023-07-17T13:23:53.524Z,2.73
2023-07-17T13:24:54.860Z,10.13
2023-07-17T13:25:53.529Z,10.56
2023-07-17T13:26:53.514Z,10.56
2023-07-17T13:27:53.521Z,11.32
2023-07-17T13:28:53.528Z,10.26
2023-07-17T13:29:53.528Z,9.25
2023-07-17T13:31:08.185Z,9.65
2023-07-17T13:31:53.569Z,9.12
2023-07-17T13:32:53.592Z,8.45
2023-07-17T13:33:53.533Z,8.54
2023-07-17T13:34:53.538Z,8.65